sensor_id;sensor_type;location;lat;lon;timestamp;P1;durP1;ratioP1;P2;durP2;ratioP2
59922;SDS011;45778;51.142;3.732;2022-11-30T00:00:15;52.85;;;23.02;;
59922;SDS011;45778;51.142;3.732;2022-11-30T00:02:41;53.63;;;22.75;;
59922;SDS011;45778;51.142;3.732;2022-11-30T00:05:07;51.05;;;20.73;;
59922;SDS011;45778;51.142;3.732;2022-11-30T00:07:33;57.80;;;23.05;;
59922;SDS011;45778;51.142;3.732;2022-11-30T00:09:59;54.47;;;21.95;;
59922;SDS011;45778;51.142;3.732;2022-11-30T00:12:25;47.92;;;21.27;;
59922;SDS011;45778;51.142;3.732;2022-11-30T00:14:52;50.65;;;21.58;;
59922;SDS011;45778;51.142;3.732;2022-11-30T00:17:17;52.17;;;20.85;;
59922;SDS011;45778;51.142;3.732;2022-11-30T00:19:43;52.00;;;20.65;;
59922;SDS011;45778;51.142;3.732;2022-11-30T00:22:09;51.00;;;21.40;;
59922;SDS011;45778;51.142;3.732;2022-11-30T00:24:34;55.53;;;22.48;;
59922;SDS011;45778;51.142;3.732;2022-11-30T00:27:00;57.30;;;22.73;;
59922;SDS011;45778;51.142;3.732;2022-11-30T00:29:26;52.40;;;22.48;;
59922;SDS011;45778;51.142;3.732;2022-11-30T00:31:51;50.92;;;22.52;;
59922;SDS011;45778;51.142;3.732;2022-11-30T00:34:17;49.30;;;22.98;;
59922;SDS011;45778;51.142;3.732;2022-11-30T00:36:43;56.42;;;22.38;;
59922;SDS011;45778;51.142;3.732;2022-11-30T00:39:08;53.53;;;21.15;;
59922;SDS011;45778;51.142;3.732;2022-11-30T00:41:34;54.05;;;22.73;;
59922;SDS011;45778;51.142;3.732;2022-11-30T00:44:00;56.67;;;22.10;;
59922;SDS011;45778;51.142;3.732;2022-11-30T00:46:25;58.67;;;23.50;;
59922;SDS011;45778;51.142;3.732;2022-11-30T00:48:51;56.17;;;23.55;;
59922;SDS011;45778;51.142;3.732;2022-11-30T00:51:17;61.97;;;23.65;;
59922;SDS011;45778;51.142;3.732;2022-11-30T00:53:44;55.67;;;23.15;;
59922;SDS011;45778;51.142;3.732;2022-11-30T00:56:11;53.70;;;22.13;;
59922;SDS011;45778;51.142;3.732;2022-11-30T00:58:37;62.30;;;23.40;;
59922;SDS011;45778;51.142;3.732;2022-11-30T01:01:04;58.85;;;24.35;;
59922;SDS011;45778;51.142;3.732;2022-11-30T01:03:30;60.40;;;24.05;;
59922;SDS011;45778;51.142;3.732;2022-11-30T01:06:00;60.42;;;24.40;;
59922;SDS011;45778;51.142;3.732;2022-11-30T01:08:29;61.67;;;24.33;;
59922;SDS011;45778;51.142;3.732;2022-11-30T01:11:02;61.22;;;24.65;;
59922;SDS011;45778;51.142;3.732;2022-11-30T01:13:48;59.00;;;22.40;;
59922;SDS011;45778;51.142;3.732;2022-11-30T01:16:16;61.20;;;26.20;;
59922;SDS011;45778;51.142;3.732;2022-11-30T01:18:43;58.33;;;22.55;;
59922;SDS011;45778;51.142;3.732;2022-11-30T01:21:10;61.72;;;25.40;;
59922;SDS011;45778;51.142;3.732;2022-11-30T01:23:37;62.65;;;24.13;;
59922;SDS011;45778;51.142;3.732;2022-11-30T01:26:03;58.25;;;23.15;;
59922;SDS011;45778;51.142;3.732;2022-11-30T01:28:29;62.80;;;24.75;;
59922;SDS011;45778;51.142;3.732;2022-11-30T01:30:59;60.83;;;22.88;;
59922;SDS011;45778;51.142;3.732;2022-11-30T01:33:30;64.43;;;23.67;;
59922;SDS011;45778;51.142;3.732;2022-11-30T01:38:33;70.47;;;25.67;;
59922;SDS011;45778;51.142;3.732;2022-11-30T01:41:01;61.13;;;23.52;;
59922;SDS011;45778;51.142;3.732;2022-11-30T01:43:44;63.72;;;23.15;;
59922;SDS011;45778;51.142;3.732;2022-11-30T01:46:32;59.97;;;21.98;;
59922;SDS011;45778;51.142;3.732;2022-11-30T01:51:35;60.45;;;23.23;;
59922;SDS011;45778;51.142;3.732;2022-11-30T01:54:10;57.88;;;22.48;;
59922;SDS011;45778;51.142;3.732;2022-11-30T01:56:40;56.65;;;22.23;;
59922;SDS011;45778;51.142;3.732;2022-11-30T01:59:12;64.90;;;23.10;;
59922;SDS011;45778;51.142;3.732;2022-11-30T02:01:39;58.65;;;22.80;;
59922;SDS011;45778;51.142;3.732;2022-11-30T02:04:07;51.75;;;21.13;;
59922;SDS011;45778;51.142;3.732;2022-11-30T02:06:53;51.60;;;22.08;;
59922;SDS011;45778;51.142;3.732;2022-11-30T02:09:23;56.08;;;21.92;;
59922;SDS011;45778;51.142;3.732;2022-11-30T02:11:51;64.30;;;23.88;;
59922;SDS011;45778;51.142;3.732;2022-11-30T02:14:22;71.97;;;25.15;;
59922;SDS011;45778;51.142;3.732;2022-11-30T02:17:45;67.82;;;26.20;;
59922;SDS011;45778;51.142;3.732;2022-11-30T02:20:01;64.88;;;24.20;;
59922;SDS011;45778;51.142;3.732;2022-11-30T02:22:58;56.40;;;24.10;;
59922;SDS011;45778;51.142;3.732;2022-11-30T02:33:30;47.95;;;19.40;;
59922;SDS011;45778;51.142;3.732;2022-11-30T02:35:57;49.58;;;20.55;;
59922;SDS011;45778;51.142;3.732;2022-11-30T02:38:25;49.17;;;20.67;;
59922;SDS011;45778;51.142;3.732;2022-11-30T02:40:52;54.03;;;22.27;;
59922;SDS011;45778;51.142;3.732;2022-11-30T02:43:21;52.78;;;21.20;;
59922;SDS011;45778;51.142;3.732;2022-11-30T02:45:52;50.17;;;22.63;;
59922;SDS011;45778;51.142;3.732;2022-11-30T02:48:31;56.95;;;22.75;;
59922;SDS011;45778;51.142;3.732;2022-11-30T02:51:22;53.05;;;22.27;;
59922;SDS011;45778;51.142;3.732;2022-11-30T02:53:50;52.75;;;20.45;;
59922;SDS011;45778;51.142;3.732;2022-11-30T02:56:17;49.05;;;21.17;;
59922;SDS011;45778;51.142;3.732;2022-11-30T02:58:43;51.67;;;20.20;;
59922;SDS011;45778;51.142;3.732;2022-11-30T03:01:09;47.38;;;21.17;;
59922;SDS011;45778;51.142;3.732;2022-11-30T03:03:35;53.75;;;21.77;;
59922;SDS011;45778;51.142;3.732;2022-11-30T03:06:01;47.85;;;20.00;;
59922;SDS011;45778;51.142;3.732;2022-11-30T03:08:26;42.33;;;19.67;;
59922;SDS011;45778;51.142;3.732;2022-11-30T03:10:52;48.22;;;18.88;;
59922;SDS011;45778;51.142;3.732;2022-11-30T03:13:18;47.92;;;18.60;;
59922;SDS011;45778;51.142;3.732;2022-11-30T03:15:43;53.90;;;20.90;;
59922;SDS011;45778;51.142;3.732;2022-11-30T03:18:09;49.15;;;22.00;;
59922;SDS011;45778;51.142;3.732;2022-11-30T03:20:39;53.78;;;22.65;;
59922;SDS011;45778;51.142;3.732;2022-11-30T03:23:06;57.50;;;22.52;;
59922;SDS011;45778;51.142;3.732;2022-11-30T03:25:32;57.83;;;22.55;;
59922;SDS011;45778;51.142;3.732;2022-11-30T03:27:59;60.05;;;22.42;;
59922;SDS011;45778;51.142;3.732;2022-11-30T03:30:25;54.47;;;20.88;;
59922;SDS011;45778;51.142;3.732;2022-11-30T03:32:51;65.75;;;23.30;;
59922;SDS011;45778;51.142;3.732;2022-11-30T03:35:17;59.75;;;21.92;;
59922;SDS011;45778;51.142;3.732;2022-11-30T03:37:43;55.75;;;22.48;;
59922;SDS011;45778;51.142;3.732;2022-11-30T03:40:09;57.63;;;21.38;;
59922;SDS011;45778;51.142;3.732;2022-11-30T03:42:35;46.67;;;20.90;;
59922;SDS011;45778;51.142;3.732;2022-11-30T03:45:01;64.45;;;23.15;;
59922;SDS011;45778;51.142;3.732;2022-11-30T03:47:27;49.30;;;21.88;;
59922;SDS011;45778;51.142;3.732;2022-11-30T03:49:53;53.95;;;21.70;;
59922;SDS011;45778;51.142;3.732;2022-11-30T03:52:19;53.47;;;22.77;;
59922;SDS011;45778;51.142;3.732;2022-11-30T03:54:44;60.88;;;21.88;;
59922;SDS011;45778;51.142;3.732;2022-11-30T03:57:10;56.72;;;22.95;;
59922;SDS011;45778;51.142;3.732;2022-11-30T03:59:36;48.88;;;21.23;;
59922;SDS011;45778;51.142;3.732;2022-11-30T04:02:01;59.10;;;23.25;;
59922;SDS011;45778;51.142;3.732;2022-11-30T04:04:27;52.40;;;21.65;;
59922;SDS011;45778;51.142;3.732;2022-11-30T04:06:53;49.03;;;20.05;;
59922;SDS011;45778;51.142;3.732;2022-11-30T04:09:18;51.20;;;20.25;;
59922;SDS011;45778;51.142;3.732;2022-11-30T04:11:44;46.30;;;20.55;;
59922;SDS011;45778;51.142;3.732;2022-11-30T04:14:10;50.17;;;22.00;;
59922;SDS011;45778;51.142;3.732;2022-11-30T04:16:35;48.72;;;21.77;;
59922;SDS011;45778;51.142;3.732;2022-11-30T04:19:01;48.33;;;21.48;;
59922;SDS011;45778;51.142;3.732;2022-11-30T04:21:27;47.10;;;19.92;;
59922;SDS011;45778;51.142;3.732;2022-11-30T04:23:53;47.55;;;20.30;;
59922;SDS011;45778;51.142;3.732;2022-11-30T04:26:18;48.78;;;20.92;;
59922;SDS011;45778;51.142;3.732;2022-11-30T04:28:44;44.88;;;19.88;;
59922;SDS011;45778;51.142;3.732;2022-11-30T04:31:10;42.58;;;21.02;;
59922;SDS011;45778;51.142;3.732;2022-11-30T04:33:36;41.22;;;19.58;;
59922;SDS011;45778;51.142;3.732;2022-11-30T04:36:03;47.42;;;21.25;;
59922;SDS011;45778;51.142;3.732;2022-11-30T04:38:31;42.10;;;19.33;;
59922;SDS011;45778;51.142;3.732;2022-11-30T04:40:58;46.22;;;20.20;;
59922;SDS011;45778;51.142;3.732;2022-11-30T04:43:24;46.95;;;22.27;;
59922;SDS011;45778;51.142;3.732;2022-11-30T04:45:51;51.67;;;21.30;;
59922;SDS011;45778;51.142;3.732;2022-11-30T04:48:17;51.22;;;21.98;;
59922;SDS011;45778;51.142;3.732;2022-11-30T04:50:43;46.30;;;21.05;;
59922;SDS011;45778;51.142;3.732;2022-11-30T04:53:09;50.10;;;21.92;;
59922;SDS011;45778;51.142;3.732;2022-11-30T04:55:36;49.92;;;22.17;;
59922;SDS011;45778;51.142;3.732;2022-11-30T04:58:02;49.70;;;19.98;;
59922;SDS011;45778;51.142;3.732;2022-11-30T05:00:29;56.42;;;21.25;;
59922;SDS011;45778;51.142;3.732;2022-11-30T05:02:55;59.22;;;21.27;;
59922;SDS011;45778;51.142;3.732;2022-11-30T05:05:21;62.92;;;22.67;;
59922;SDS011;45778;51.142;3.732;2022-11-30T05:07:53;51.45;;;22.13;;
59922;SDS011;45778;51.142;3.732;2022-11-30T05:10:20;98.00;;;22.17;;
59922;SDS011;45778;51.142;3.732;2022-11-30T05:12:46;89.47;;;22.45;;
59922;SDS011;45778;51.142;3.732;2022-11-30T05:15:12;138.68;;;25.77;;
59922;SDS011;45778;51.142;3.732;2022-11-30T05:17:38;139.27;;;28.75;;
59922;SDS011;45778;51.142;3.732;2022-11-30T05:20:03;88.85;;;23.45;;
59922;SDS011;45778;51.142;3.732;2022-11-30T05:22:30;162.27;;;26.67;;
59922;SDS011;45778;51.142;3.732;2022-11-30T05:24:58;92.22;;;24.00;;
59922;SDS011;45778;51.142;3.732;2022-11-30T05:27:24;104.28;;;27.45;;
59922;SDS011;45778;51.142;3.732;2022-11-30T05:29:50;108.60;;;27.80;;
59922;SDS011;45778;51.142;3.732;2022-11-30T05:32:16;109.97;;;27.67;;
59922;SDS011;45778;51.142;3.732;2022-11-30T05:34:42;94.45;;;26.00;;
59922;SDS011;45778;51.142;3.732;2022-11-30T05:37:07;106.13;;;26.02;;
59922;SDS011;45778;51.142;3.732;2022-11-30T05:39:33;84.78;;;25.48;;
59922;SDS011;45778;51.142;3.732;2022-11-30T05:41:59;116.82;;;27.90;;
59922;SDS011;45778;51.142;3.732;2022-11-30T05:44:24;73.93;;;24.63;;
59922;SDS011;45778;51.142;3.732;2022-11-30T05:46:50;89.55;;;23.60;;
59922;SDS011;45778;51.142;3.732;2022-11-30T05:49:16;129.98;;;27.23;;
59922;SDS011;45778;51.142;3.732;2022-11-30T05:51:41;77.40;;;23.50;;
59922;SDS011;45778;51.142;3.732;2022-11-30T05:54:07;111.05;;;23.88;;
59922;SDS011;45778;51.142;3.732;2022-11-30T05:56:33;123.22;;;24.27;;
59922;SDS011;45778;51.142;3.732;2022-11-30T05:58:58;102.13;;;23.50;;
59922;SDS011;45778;51.142;3.732;2022-11-30T06:01:25;79.47;;;22.48;;
59922;SDS011;45778;51.142;3.732;2022-11-30T06:03:53;170.63;;;27.08;;
59922;SDS011;45778;51.142;3.732;2022-11-30T06:06:19;140.63;;;25.15;;
59922;SDS011;45778;51.142;3.732;2022-11-30T06:08:47;97.47;;;21.63;;
59922;SDS011;45778;51.142;3.732;2022-11-30T06:11:13;237.23;;;28.83;;
59922;SDS011;45778;51.142;3.732;2022-11-30T06:13:39;143.05;;;23.02;;
59922;SDS011;45778;51.142;3.732;2022-11-30T06:16:06;87.45;;;22.75;;
59922;SDS011;45778;51.142;3.732;2022-11-30T06:18:32;149.02;;;27.38;;
59922;SDS011;45778;51.142;3.732;2022-11-30T06:20:59;153.88;;;24.88;;
59922;SDS011;45778;51.142;3.732;2022-11-30T06:23:26;139.68;;;21.73;;
59922;SDS011;45778;51.142;3.732;2022-11-30T06:25:52;274.77;;;31.95;;
59922;SDS011;45778;51.142;3.732;2022-11-30T06:28:18;303.73;;;33.28;;
59922;SDS011;45778;51.142;3.732;2022-11-30T06:30:43;194.57;;;27.13;;
59922;SDS011;45778;51.142;3.732;2022-11-30T06:33:09;218.68;;;26.45;;
59922;SDS011;45778;51.142;3.732;2022-11-30T06:35:35;254.07;;;29.85;;
59922;SDS011;45778;51.142;3.732;2022-11-30T06:38:00;246.52;;;30.25;;
59922;SDS011;45778;51.142;3.732;2022-11-30T06:40:26;108.25;;;19.50;;
59922;SDS011;45778;51.142;3.732;2022-11-30T06:42:52;98.65;;;17.92;;
59922;SDS011;45778;51.142;3.732;2022-11-30T06:45:18;151.80;;;24.60;;
59922;SDS011;45778;51.142;3.732;2022-11-30T06:47:44;166.75;;;22.70;;
59922;SDS011;45778;51.142;3.732;2022-11-30T06:50:11;202.20;;;23.17;;
59922;SDS011;45778;51.142;3.732;2022-11-30T06:52:38;217.75;;;27.50;;
59922;SDS011;45778;51.142;3.732;2022-11-30T06:55:04;140.02;;;21.17;;
59922;SDS011;45778;51.142;3.732;2022-11-30T06:57:30;164.05;;;21.95;;
59922;SDS011;45778;51.142;3.732;2022-11-30T06:59:55;156.75;;;25.15;;
59922;SDS011;45778;51.142;3.732;2022-11-30T07:02:21;224.82;;;31.60;;
59922;SDS011;45778;51.142;3.732;2022-11-30T07:04:48;189.57;;;26.83;;
59922;SDS011;45778;51.142;3.732;2022-11-30T07:07:13;254.48;;;32.17;;
59922;SDS011;45778;51.142;3.732;2022-11-30T07:09:39;190.80;;;28.95;;
59922;SDS011;45778;51.142;3.732;2022-11-30T07:12:06;229.82;;;30.40;;
59922;SDS011;45778;51.142;3.732;2022-11-30T07:14:32;199.27;;;25.58;;
59922;SDS011;45778;51.142;3.732;2022-11-30T07:16:57;230.50;;;29.35;;
59922;SDS011;45778;51.142;3.732;2022-11-30T07:19:23;161.88;;;26.00;;
59922;SDS011;45778;51.142;3.732;2022-11-30T07:21:49;218.30;;;26.42;;
59922;SDS011;45778;51.142;3.732;2022-11-30T07:24:15;205.57;;;28.30;;
59922;SDS011;45778;51.142;3.732;2022-11-30T07:26:59;301.58;;;37.65;;
59922;SDS011;45778;51.142;3.732;2022-11-30T07:29:26;355.20;;;39.58;;
59922;SDS011;45778;51.142;3.732;2022-11-30T07:31:52;292.33;;;35.70;;
59922;SDS011;45778;51.142;3.732;2022-11-30T07:34:19;371.17;;;41.20;;
59922;SDS011;45778;51.142;3.732;2022-11-30T07:36:44;293.67;;;34.55;;
59922;SDS011;45778;51.142;3.732;2022-11-30T07:39:11;281.27;;;37.30;;
59922;SDS011;45778;51.142;3.732;2022-11-30T07:41:37;299.60;;;35.60;;
59922;SDS011;45778;51.142;3.732;2022-11-30T07:44:04;237.80;;;30.27;;
59922;SDS011;45778;51.142;3.732;2022-11-30T07:46:31;220.32;;;29.90;;
59922;SDS011;45778;51.142;3.732;2022-11-30T07:49:03;235.07;;;30.30;;
59922;SDS011;45778;51.142;3.732;2022-11-30T07:51:30;347.00;;;37.28;;
59922;SDS011;45778;51.142;3.732;2022-11-30T07:53:56;208.63;;;27.85;;
59922;SDS011;45778;51.142;3.732;2022-11-30T07:56:22;209.95;;;33.50;;
59922;SDS011;45778;51.142;3.732;2022-11-30T07:58:49;142.27;;;28.98;;
59922;SDS011;45778;51.142;3.732;2022-11-30T08:01:18;181.02;;;26.75;;
59922;SDS011;45778;51.142;3.732;2022-11-30T08:03:46;182.52;;;27.35;;
59922;SDS011;45778;51.142;3.732;2022-11-30T08:06:13;113.40;;;21.70;;
59922;SDS011;45778;51.142;3.732;2022-11-30T08:08:41;226.13;;;29.70;;
59922;SDS011;45778;51.142;3.732;2022-11-30T08:11:09;328.85;;;34.72;;
59922;SDS011;45778;51.142;3.732;2022-11-30T08:13:37;169.57;;;27.27;;
59922;SDS011;45778;51.142;3.732;2022-11-30T08:16:10;163.27;;;27.15;;
59922;SDS011;45778;51.142;3.732;2022-11-30T08:18:37;89.93;;;25.20;;
59922;SDS011;45778;51.142;3.732;2022-11-30T08:21:04;137.52;;;26.98;;
59922;SDS011;45778;51.142;3.732;2022-11-30T08:23:32;107.00;;;25.65;;
59922;SDS011;45778;51.142;3.732;2022-11-30T08:26:05;100.35;;;26.65;;
59922;SDS011;45778;51.142;3.732;2022-11-30T08:28:42;99.05;;;25.10;;
59922;SDS011;45778;51.142;3.732;2022-11-30T08:31:10;103.75;;;25.38;;
59922;SDS011;45778;51.142;3.732;2022-11-30T08:33:38;100.80;;;23.85;;
59922;SDS011;45778;51.142;3.732;2022-11-30T08:36:08;92.75;;;25.00;;
59922;SDS011;45778;51.142;3.732;2022-11-30T08:38:38;133.55;;;28.38;;
59922;SDS011;45778;51.142;3.732;2022-11-30T08:41:05;150.88;;;28.20;;
59922;SDS011;45778;51.142;3.732;2022-11-30T08:43:32;122.63;;;29.67;;
59922;SDS011;45778;51.142;3.732;2022-11-30T08:46:00;109.95;;;28.75;;
59922;SDS011;45778;51.142;3.732;2022-11-30T08:48:27;277.52;;;40.28;;
59922;SDS011;45778;51.142;3.732;2022-11-30T08:50:53;176.02;;;37.03;;
59922;SDS011;45778;51.142;3.732;2022-11-30T08:53:18;177.18;;;38.55;;
59922;SDS011;45778;51.142;3.732;2022-11-30T08:55:53;368.98;;;51.78;;
59922;SDS011;45778;51.142;3.732;2022-11-30T08:58:28;237.63;;;49.55;;
59922;SDS011;45778;51.142;3.732;2022-11-30T09:01:18;237.63;;;48.90;;
59922;SDS011;45778;51.142;3.732;2022-11-30T09:03:44;289.35;;;54.85;;
59922;SDS011;45778;51.142;3.732;2022-11-30T09:06:12;398.17;;;61.33;;
59922;SDS011;45778;51.142;3.732;2022-11-30T09:08:40;276.30;;;52.80;;
59922;SDS011;45778;51.142;3.732;2022-11-30T09:11:08;350.52;;;58.85;;
59922;SDS011;45778;51.142;3.732;2022-11-30T09:13:37;315.15;;;54.63;;
59922;SDS011;45778;51.142;3.732;2022-11-30T09:16:04;251.98;;;56.00;;
59922;SDS011;45778;51.142;3.732;2022-11-30T09:18:30;322.45;;;54.53;;
59922;SDS011;45778;51.142;3.732;2022-11-30T09:20:59;562.08;;;74.20;;
59922;SDS011;45778;51.142;3.732;2022-11-30T09:23:26;322.20;;;58.08;;
59922;SDS011;45778;51.142;3.732;2022-11-30T09:25:54;348.00;;;74.20;;
59922;SDS011;45778;51.142;3.732;2022-11-30T09:28:23;433.70;;;74.88;;
59922;SDS011;45778;51.142;3.732;2022-11-30T09:30:50;404.17;;;63.33;;
59922;SDS011;45778;51.142;3.732;2022-11-30T09:33:15;395.13;;;59.13;;
59922;SDS011;45778;51.142;3.732;2022-11-30T09:35:41;380.52;;;87.65;;
59922;SDS011;45778;51.142;3.732;2022-11-30T09:38:07;406.02;;;62.95;;
59922;SDS011;45778;51.142;3.732;2022-11-30T09:40:33;504.40;;;63.95;;
59922;SDS011;45778;51.142;3.732;2022-11-30T09:43:05;261.42;;;54.95;;
59922;SDS011;45778;51.142;3.732;2022-11-30T09:45:49;468.58;;;72.93;;
59922;SDS011;45778;51.142;3.732;2022-11-30T09:49:02;480.88;;;69.70;;
59922;SDS011;45778;51.142;3.732;2022-11-30T09:51:41;418.00;;;62.88;;
59922;SDS011;45778;51.142;3.732;2022-11-30T09:54:15;581.92;;;76.95;;
59922;SDS011;45778;51.142;3.732;2022-11-30T09:57:03;544.35;;;71.90;;
59922;SDS011;45778;51.142;3.732;2022-11-30T09:59:39;456.95;;;65.38;;
59922;SDS011;45778;51.142;3.732;2022-11-30T10:02:13;338.60;;;58.17;;
59922;SDS011;45778;51.142;3.732;2022-11-30T10:04:41;683.08;;;82.15;;
59922;SDS011;45778;51.142;3.732;2022-11-30T10:10:06;401.98;;;63.65;;
59922;SDS011;45778;51.142;3.732;2022-11-30T10:12:45;299.02;;;63.60;;
59922;SDS011;45778;51.142;3.732;2022-11-30T10:20:36;511.80;;;72.15;;
59922;SDS011;45778;51.142;3.732;2022-11-30T10:26:05;325.52;;;61.80;;
59922;SDS011;45778;51.142;3.732;2022-11-30T10:31:28;435.70;;;71.43;;
59922;SDS011;45778;51.142;3.732;2022-11-30T10:34:00;391.63;;;62.65;;
59922;SDS011;45778;51.142;3.732;2022-11-30T10:36:39;262.92;;;57.33;;
59922;SDS011;45778;51.142;3.732;2022-11-30T10:39:23;367.40;;;62.92;;
59922;SDS011;45778;51.142;3.732;2022-11-30T10:42:16;435.42;;;66.85;;
59922;SDS011;45778;51.142;3.732;2022-11-30T10:44:44;331.45;;;60.70;;
59922;SDS011;45778;51.142;3.732;2022-11-30T10:47:21;242.30;;;52.88;;
59922;SDS011;45778;51.142;3.732;2022-11-30T10:50:01;298.45;;;54.65;;
59922;SDS011;45778;51.142;3.732;2022-11-30T10:52:29;335.35;;;61.38;;
59922;SDS011;45778;51.142;3.732;2022-11-30T10:55:01;295.38;;;56.28;;
59922;SDS011;45778;51.142;3.732;2022-11-30T10:57:28;326.25;;;61.42;;
59922;SDS011;45778;51.142;3.732;2022-11-30T10:59:56;408.00;;;77.63;;
59922;SDS011;45778;51.142;3.732;2022-11-30T11:05:12;301.95;;;73.38;;
59922;SDS011;45778;51.142;3.732;2022-11-30T11:10:19;364.23;;;61.85;;
59922;SDS011;45778;51.142;3.732;2022-11-30T11:12:53;308.08;;;62.05;;
59922;SDS011;45778;51.142;3.732;2022-11-30T11:15:26;354.33;;;66.05;;
59922;SDS011;45778;51.142;3.732;2022-11-30T11:18:11;271.40;;;62.60;;
59922;SDS011;45778;51.142;3.732;2022-11-30T11:20:45;415.92;;;61.13;;
59922;SDS011;45778;51.142;3.732;2022-11-30T11:23:31;262.90;;;53.40;;
59922;SDS011;45778;51.142;3.732;2022-11-30T11:25:58;290.50;;;53.70;;
59922;SDS011;45778;51.142;3.732;2022-11-30T11:28:24;275.35;;;55.63;;
59922;SDS011;45778;51.142;3.732;2022-11-30T11:30:53;289.65;;;53.47;;
59922;SDS011;45778;51.142;3.732;2022-11-30T11:33:25;287.25;;;54.40;;
59922;SDS011;45778;51.142;3.732;2022-11-30T11:35:53;191.18;;;50.33;;
59922;SDS011;45778;51.142;3.732;2022-11-30T11:38:27;249.25;;;52.88;;
59922;SDS011;45778;51.142;3.732;2022-11-30T11:41:18;174.00;;;49.50;;
59922;SDS011;45778;51.142;3.732;2022-11-30T11:44:02;158.25;;;48.30;;
59922;SDS011;45778;51.142;3.732;2022-11-30T11:46:34;144.93;;;48.50;;
59922;SDS011;45778;51.142;3.732;2022-11-30T11:51:46;113.18;;;48.17;;
59922;SDS011;45778;51.142;3.732;2022-11-30T11:54:24;116.80;;;47.15;;
59922;SDS011;45778;51.142;3.732;2022-11-30T11:56:52;118.65;;;48.53;;
59922;SDS011;45778;51.142;3.732;2022-11-30T11:59:21;115.35;;;46.58;;
59922;SDS011;45778;51.142;3.732;2022-11-30T12:05:11;109.03;;;46.80;;
59922;SDS011;45778;51.142;3.732;2022-11-30T12:11:05;111.22;;;46.97;;
59922;SDS011;45778;51.142;3.732;2022-11-30T12:13:40;114.82;;;48.15;;
59922;SDS011;45778;51.142;3.732;2022-11-30T12:18:56;118.95;;;47.35;;
59922;SDS011;45778;51.142;3.732;2022-11-30T12:30:00;116.65;;;48.95;;
59922;SDS011;45778;51.142;3.732;2022-11-30T12:32:54;121.97;;;48.00;;
59922;SDS011;45778;51.142;3.732;2022-11-30T12:40:34;119.07;;;49.33;;
59922;SDS011;45778;51.142;3.732;2022-11-30T12:55:01;104.53;;;45.88;;
59922;SDS011;45778;51.142;3.732;2022-11-30T12:57:41;105.88;;;44.67;;
59922;SDS011;45778;51.142;3.732;2022-11-30T13:00:12;112.78;;;48.72;;
59922;SDS011;45778;51.142;3.732;2022-11-30T13:11:04;105.90;;;44.42;;
59922;SDS011;45778;51.142;3.732;2022-11-30T13:13:35;111.68;;;49.00;;
59922;SDS011;45778;51.142;3.732;2022-11-30T13:16:05;111.00;;;45.67;;
59922;SDS011;45778;51.142;3.732;2022-11-30T13:18:33;107.97;;;45.90;;
59922;SDS011;45778;51.142;3.732;2022-11-30T13:21:08;127.22;;;47.80;;
59922;SDS011;45778;51.142;3.732;2022-11-30T13:31:36;120.15;;;48.45;;
59922;SDS011;45778;51.142;3.732;2022-11-30T13:34:26;110.07;;;47.15;;
59922;SDS011;45778;51.142;3.732;2022-11-30T13:39:36;133.93;;;52.75;;
59922;SDS011;45778;51.142;3.732;2022-11-30T13:44:59;135.25;;;57.15;;
59922;SDS011;45778;51.142;3.732;2022-11-30T13:47:49;143.23;;;56.70;;
59922;SDS011;45778;51.142;3.732;2022-11-30T13:58:14;157.60;;;60.40;;
59922;SDS011;45778;51.142;3.732;2022-11-30T14:05:59;165.98;;;61.08;;
59922;SDS011;45778;51.142;3.732;2022-11-30T14:08:29;171.13;;;64.40;;
59922;SDS011;45778;51.142;3.732;2022-11-30T14:13:41;173.52;;;61.72;;
59922;SDS011;45778;51.142;3.732;2022-11-30T14:16:24;165.00;;;61.83;;
59922;SDS011;45778;51.142;3.732;2022-11-30T14:18:54;163.23;;;59.00;;
59922;SDS011;45778;51.142;3.732;2022-11-30T14:21:31;160.95;;;60.22;;
59922;SDS011;45778;51.142;3.732;2022-11-30T14:24:18;181.27;;;64.05;;
59922;SDS011;45778;51.142;3.732;2022-11-30T14:26:47;179.95;;;61.33;;
59922;SDS011;45778;51.142;3.732;2022-11-30T14:29:28;174.48;;;61.53;;
59922;SDS011;45778;51.142;3.732;2022-11-30T14:32:00;193.65;;;64.88;;
59922;SDS011;45778;51.142;3.732;2022-11-30T14:34:41;170.60;;;59.65;;
59922;SDS011;45778;51.142;3.732;2022-11-30T14:39:48;163.55;;;61.80;;
59922;SDS011;45778;51.142;3.732;2022-11-30T14:42:24;166.18;;;59.22;;
59922;SDS011;45778;51.142;3.732;2022-11-30T14:44:52;160.20;;;59.80;;
59922;SDS011;45778;51.142;3.732;2022-11-30T14:49:58;173.75;;;63.22;;
59922;SDS011;45778;51.142;3.732;2022-11-30T14:58:14;176.68;;;65.28;;
59922;SDS011;45778;51.142;3.732;2022-11-30T15:00:44;160.65;;;62.03;;
59922;SDS011;45778;51.142;3.732;2022-11-30T15:06:00;163.95;;;60.17;;
59922;SDS011;45778;51.142;3.732;2022-11-30T15:08:35;168.10;;;61.33;;
59922;SDS011;45778;51.142;3.732;2022-11-30T15:11:09;162.75;;;59.90;;
59922;SDS011;45778;51.142;3.732;2022-11-30T15:13:37;163.93;;;60.17;;
59922;SDS011;45778;51.142;3.732;2022-11-30T15:16:10;168.43;;;61.28;;
59922;SDS011;45778;51.142;3.732;2022-11-30T15:18:43;163.00;;;59.80;;
59922;SDS011;45778;51.142;3.732;2022-11-30T15:21:12;156.18;;;59.33;;
59922;SDS011;45778;51.142;3.732;2022-11-30T15:23:51;163.93;;;59.70;;
59922;SDS011;45778;51.142;3.732;2022-11-30T15:31:22;175.45;;;60.22;;
59922;SDS011;45778;51.142;3.732;2022-11-30T15:33:50;168.07;;;59.50;;
59922;SDS011;45778;51.142;3.732;2022-11-30T15:36:16;164.27;;;58.53;;
59922;SDS011;45778;51.142;3.732;2022-11-30T15:38:48;167.20;;;57.30;;
59922;SDS011;45778;51.142;3.732;2022-11-30T15:41:20;157.20;;;54.08;;
59922;SDS011;45778;51.142;3.732;2022-11-30T15:43:52;166.70;;;56.70;;
59922;SDS011;45778;51.142;3.732;2022-11-30T15:46:37;186.00;;;59.25;;
59922;SDS011;45778;51.142;3.732;2022-11-30T15:49:14;211.25;;;62.33;;
59922;SDS011;45778;51.142;3.732;2022-11-30T15:51:45;197.50;;;60.28;;
59922;SDS011;45778;51.142;3.732;2022-11-30T15:54:12;193.23;;;61.15;;
59922;SDS011;45778;51.142;3.732;2022-11-30T15:56:39;188.65;;;57.17;;
59922;SDS011;45778;51.142;3.732;2022-11-30T15:59:06;182.88;;;59.35;;
59922;SDS011;45778;51.142;3.732;2022-11-30T16:10:22;194.70;;;58.33;;
59922;SDS011;45778;51.142;3.732;2022-11-30T16:12:53;199.65;;;59.80;;
59922;SDS011;45778;51.142;3.732;2022-11-30T16:15:30;219.45;;;59.42;;
59922;SDS011;45778;51.142;3.732;2022-11-30T16:20:43;235.30;;;63.03;;
59922;SDS011;45778;51.142;3.732;2022-11-30T16:23:11;234.90;;;63.63;;
59922;SDS011;45778;51.142;3.732;2022-11-30T16:25:39;256.58;;;62.50;;
59922;SDS011;45778;51.142;3.732;2022-11-30T16:28:10;273.25;;;69.60;;
59922;SDS011;45778;51.142;3.732;2022-11-30T16:30:37;230.35;;;67.68;;
59922;SDS011;45778;51.142;3.732;2022-11-30T16:33:03;248.77;;;69.93;;
59922;SDS011;45778;51.142;3.732;2022-11-30T16:35:36;247.43;;;66.80;;
59922;SDS011;45778;51.142;3.732;2022-11-30T16:38:10;274.02;;;68.22;;
59922;SDS011;45778;51.142;3.732;2022-11-30T16:40:36;254.48;;;68.97;;
59922;SDS011;45778;51.142;3.732;2022-11-30T16:43:02;264.27;;;68.95;;
59922;SDS011;45778;51.142;3.732;2022-11-30T16:45:31;261.25;;;70.72;;